»·PEaware :: WAT540 KSPZ-KRDD

WAT540 :: KSPZ-KRDD

FLIGHT INFORMATION

Flight Status: Arrived
Operator:
Walker Air Transport
More flights by this operator :: More flights under this callsign
Pilot: Michael R. (33632)
Aircraft: GRUMMAN AERO AA5 CHEETAH TIGER
(AA5)
More flights by this aircraft type
Origin: KSPZ Silver Springs
United States
Destination: KRDD Redding Mun
United States
More flights between these airports :: More routes between these airports
Route:
File this flight plan on PilotEdge
Remarks:
Altitude:
(Current/Filed)
10,500ft
Speed:
(Current/Filed)
130kts
Departed: 17-Feb-21 12:46 PM
Arrived: 17-Feb-21 02:08 PM
Distance/Time
Traveled:
155nm/1:21
Distance/Time
To Go:
Arrived

Flight Plot

Page will automatically refresh every two minutes.

Flight plan parsing failed; only flown route is shown


Map Options




Map Legend


Flown Route
Filed Route
Departure Airport
Arrival Airport
Navaid (VOR, NDB)
Fix

Horizontal Profiles

Position Reports

Time Latitude Longitude Heading Altitude Ground
Speed
17-Feb-21 12:20 39.404983 -119.248756 246 4229ft 0kts
17-Feb-21 12:21 39.404983 -119.248756 246 4229ft 0kts
17-Feb-21 12:22 39.404983 -119.248756 246 4229ft 0kts
17-Feb-21 12:23 39.404983 -119.248756 246 4229ft 0kts
17-Feb-21 12:24 39.404983 -119.248756 246 4229ft 0kts
17-Feb-21 12:25 39.404983 -119.248756 246 4229ft 0kts
17-Feb-21 12:26 39.404983 -119.248756 246 4229ft 0kts
17-Feb-21 12:27 39.404983 -119.248756 246 4229ft 0kts
17-Feb-21 12:28 39.404983 -119.248756 246 4229ft 0kts
17-Feb-21 12:29 39.404983 -119.248756 246 4229ft 0kts
17-Feb-21 12:30 39.404983 -119.248756 246 4229ft 0kts
17-Feb-21 12:31 39.404983 -119.248756 246 4229ft 0kts
17-Feb-21 12:32 39.404983 -119.248756 246 4229ft 0kts
17-Feb-21 12:33 39.404983 -119.248756 246 4229ft 0kts
17-Feb-21 12:34 39.404983 -119.248756 246 4229ft 0kts
17-Feb-21 12:35 39.404983 -119.248756 246 4229ft 0kts
17-Feb-21 12:36 39.404983 -119.248756 246 4229ft 0kts
17-Feb-21 12:37 39.404983 -119.248756 246 4229ft 0kts
17-Feb-21 12:38 39.404983 -119.248756 246 4229ft 0kts
17-Feb-21 12:39 39.404983 -119.248756 246 4229ft 0kts
17-Feb-21 12:40 39.404983 -119.248756 246 4229ft 0kts
17-Feb-21 12:41 39.404093 -119.250711 248 4234ft 17kts
17-Feb-21 12:42 39.402000 -119.257697 252 4249ft 17kts
17-Feb-21 12:43 39.401144 -119.261400 178 4260ft 0kts
17-Feb-21 12:44 39.401039 -119.261394 177 4260ft 3kts
17-Feb-21 12:45 39.401594 -119.256014 69 4248ft 69kts
17-Feb-21 12:46 39.408124 -119.230513 35 4800ft 79kts
17-Feb-21 12:47 39.430096 -119.233592 2 5404ft 79kts
17-Feb-21 12:48 39.453849 -119.233757 4 5945ft 91kts
17-Feb-21 12:49 39.479427 -119.239687 353 6528ft 93kts
17-Feb-21 12:50 39.505112 -119.247394 353 7091ft 92kts
17-Feb-21 12:51 39.527553 -119.266986 325 7596ft 101kts
17-Feb-21 12:52 39.547436 -119.293574 313 8083ft 106kts
17-Feb-21 12:53 39.563827 -119.325298 313 8548ft 103kts
17-Feb-21 12:54 39.579382 -119.356223 313 8948ft 102kts
17-Feb-21 12:55 39.594593 -119.387000 313 9330ft 100kts
17-Feb-21 12:56 39.609553 -119.418967 311 9705ft 100kts
17-Feb-21 12:57 39.623920 -119.451416 311 10063ft 98kts
17-Feb-21 12:58 39.638132 -119.484099 311 10395ft 97kts
17-Feb-21 12:59 39.653488 -119.518594 311 10498ft 111kts
17-Feb-21 13:00 39.669153 -119.557196 307 10496ft 117kts
17-Feb-21 13:01 39.684700 -119.597239 305 10496ft 119kts
17-Feb-21 13:02 39.699929 -119.638157 306 10496ft 119kts
17-Feb-21 13:03 39.714925 -119.678282 305 10494ft 119kts
17-Feb-21 13:04 39.730146 -119.718836 306 10494ft 118kts
17-Feb-21 13:05 39.746361 -119.762016 305 10513ft 117kts
17-Feb-21 13:06 39.761319 -119.801779 305 10512ft 117kts
17-Feb-21 13:07 39.776471 -119.842802 305 10513ft 117kts
17-Feb-21 13:08 39.791227 -119.883989 303 10512ft 118kts
17-Feb-21 13:09 39.805156 -119.925737 302 10511ft 118kts
17-Feb-21 13:10 39.818149 -119.967131 302 10512ft 118kts
17-Feb-21 13:11 39.830953 -120.008129 301 10513ft 118kts
17-Feb-21 13:12 39.843725 -120.049222 301 10513ft 118kts
17-Feb-21 13:13 39.857329 -120.093056 302 10511ft 119kts
17-Feb-21 13:14 39.870945 -120.135275 303 10514ft 118kts
17-Feb-21 13:15 39.885027 -120.179684 301 10513ft 119kts
17-Feb-21 13:16 39.898807 -120.224021 301 10514ft 119kts
17-Feb-21 13:17 39.912376 -120.267998 302 10515ft 119kts
17-Feb-21 13:18 39.925246 -120.309821 302 10520ft 118kts
17-Feb-21 13:19 39.938039 -120.351302 300 10505ft 121kts
17-Feb-21 13:20 39.950884 -120.393287 300 10511ft 120kts
17-Feb-21 13:21 39.963606 -120.434848 300 10518ft 121kts
17-Feb-21 13:22 39.976631 -120.477438 300 10521ft 120kts
17-Feb-21 13:23 39.989465 -120.519471 300 10520ft 121kts
17-Feb-21 13:24 40.003056 -120.564075 299 10525ft 121kts
17-Feb-21 13:25 40.016807 -120.609236 300 10521ft 120kts
17-Feb-21 13:26 40.030425 -120.654066 300 10523ft 121kts
17-Feb-21 13:27 40.043866 -120.698339 300 10519ft 120kts
17-Feb-21 13:28 40.057589 -120.743623 299 10522ft 120kts
17-Feb-21 13:29 40.071014 -120.788039 299 10519ft 120kts
17-Feb-21 13:30 40.084038 -120.831222 299 10521ft 120kts
17-Feb-21 13:31 40.096544 -120.872684 299 10521ft 120kts
17-Feb-21 13:32 40.109326 -120.915133 299 10524ft 122kts
17-Feb-21 13:33 40.122738 -120.959825 299 10526ft 122kts
17-Feb-21 13:35 40.136491 -121.005828 301 10527ft 122kts
17-Feb-21 13:36 40.149133 -121.048083 303 10525ft 121kts
17-Feb-21 13:37 40.161353 -121.088976 305 10525ft 119kts
17-Feb-21 13:38 40.173835 -121.130767 307 10527ft 117kts
17-Feb-21 13:39 40.185902 -121.171179 308 10517ft 116kts
17-Feb-21 13:40 40.197957 -121.211696 309 10518ft 112kts
17-Feb-21 13:41 40.210061 -121.252292 309 10523ft 109kts
17-Feb-21 13:42 40.222369 -121.293706 309 10527ft 106kts
17-Feb-21 13:43 40.233949 -121.332755 309 10532ft 103kts
17-Feb-21 13:44 40.244708 -121.369084 309 10535ft 101kts
17-Feb-21 13:45 40.255084 -121.404162 309 10539ft 99kts
17-Feb-21 13:46 40.265328 -121.438844 309 10543ft 97kts
17-Feb-21 13:47 40.275549 -121.473496 309 10543ft 96kts
17-Feb-21 13:48 40.285899 -121.508467 308 10428ft 103kts
17-Feb-21 13:49 40.296739 -121.545284 306 10182ft 111kts
17-Feb-21 13:50 40.308067 -121.584018 306 9954ft 112kts
17-Feb-21 13:51 40.319628 -121.623443 305 9633ft 116kts
17-Feb-21 13:52 40.331959 -121.665570 303 9174ft 123kts
17-Feb-21 13:53 40.344145 -121.710235 300 8550ft 134kts
17-Feb-21 13:54 40.357395 -121.758932 302 7865ft 137kts
17-Feb-21 13:54 40.368791 -121.798304 302 7325ft 139kts
17-Feb-21 13:56 40.384988 -121.854197 302 6584ft 141kts
17-Feb-21 13:56 40.396711 -121.894724 301 6062ft 143kts
17-Feb-21 13:57 40.410959 -121.944057 301 5445ft 145kts
17-Feb-21 13:59 40.427810 -122.002520 300 4748ft 148kts
17-Feb-21 14:00 40.442594 -122.053882 299 4169ft 154kts
17-Feb-21 14:01 40.467182 -122.095117 327 3671ft 144kts
17-Feb-21 14:01 40.491774 -122.121254 327 3213ft 123kts
17-Feb-21 14:02 40.514039 -122.152239 282 2495ft 132kts
17-Feb-21 14:03 40.520434 -122.195184 298 2066ft 109kts
17-Feb-21 14:04 40.527467 -122.233039 301 1691ft 105kts
17-Feb-21 14:05 40.531332 -122.267963 292 1472ft 80kts
17-Feb-21 14:06 40.529197 -122.294020 199 875ft 101kts
17-Feb-21 14:07 40.509347 -122.294925 182 494ft 33kts
17-Feb-21 14:08 40.508315 -122.295888 298 494ft 0kts
17-Feb-21 14:09 40.507957 -122.298575 353 493ft 7kts
17-Feb-21 14:10 40.508565 -122.299229 259 494ft 0kts

Navigation Log

Ident Type
Flight plan parsing failed, navigation log unavailable